createdAt,value
2022-10-18T00:01:16.777Z,11.97
2022-10-18T00:05:19.402Z,12.04
2022-10-18T00:09:21.024Z,11.97
2022-10-18T00:13:23.511Z,12.01
2022-10-18T00:17:25.664Z,11.96
2022-10-18T00:21:27.662Z,11.93
2022-10-18T00:25:29.391Z,11.86
2022-10-18T00:29:31.209Z,11.79
2022-10-18T00:33:32.811Z,11.75
2022-10-18T00:37:35.330Z,11.66
2022-10-18T00:41:38.023Z,11.64
2022-10-18T00:45:39.840Z,11.66
2022-10-18T00:49:52.408Z,11.61
2022-10-18T00:53:54.988Z,11.66
2022-10-18T00:57:57.693Z,11.67
2022-10-18T01:01:59.748Z,11.64
2022-10-18T01:06:01.625Z,11.59
2022-10-18T01:10:28.489Z,11.58
2022-10-18T01:14:42.838Z,11.60
2022-10-18T01:19:02.806Z,11.61
2022-10-18T01:23:36.766Z,11.54
2022-10-18T01:27:45.931Z,11.54
2022-10-18T01:31:59.598Z,11.54
2022-10-18T01:36:08.395Z,11.49
2022-10-18T01:40:14.364Z,11.42
2022-10-18T01:44:21.473Z,11.36
2022-10-18T01:48:23.693Z,11.36
2022-10-18T01:52:25.612Z,11.33
2022-10-18T01:56:31.071Z,11.43
2022-10-18T02:00:40.189Z,11.28
2022-10-18T02:04:54.031Z,11.36
2022-10-18T02:09:10.688Z,11.30
2022-10-18T02:13:16.270Z,11.28
2022-10-18T02:17:20.802Z,11.31
2022-10-18T02:21:23.178Z,11.19
2022-10-18T02:25:29.119Z,11.09
2022-10-18T02:29:32.527Z,11.02
2022-10-18T02:33:45.338Z,10.86
2022-10-18T02:37:50.158Z,10.81
2022-10-18T02:41:53.877Z,10.77
2022-10-18T02:45:55.858Z,10.71
2022-10-18T02:49:57.829Z,10.66
2022-10-18T02:53:59.475Z,10.60
2022-10-18T02:58:01.364Z,10.43
2022-10-18T03:02:02.974Z,10.33
2022-10-18T03:06:05.297Z,10.23
2022-10-18T03:10:07.482Z,10.18
2022-10-18T03:14:09.342Z,10.00
2022-10-18T03:18:11.324Z,9.91
2022-10-18T03:22:13.407Z,9.94
2022-10-18T03:26:15.062Z,9.95
2022-10-18T03:30:16.982Z,9.89
2022-10-18T03:34:18.599Z,9.84
2022-10-18T03:38:20.441Z,9.75
2022-10-18T03:42:22.279Z,9.74
2022-10-18T03:46:24.132Z,9.64
2022-10-18T03:50:25.732Z,9.65
2022-10-18T03:54:27.747Z,9.56
2022-10-18T03:58:29.551Z,9.44
2022-10-18T04:02:31.973Z,9.44
2022-10-18T04:06:33.916Z,9.43
2022-10-18T04:10:38.629Z,9.43
2022-10-18T04:14:40.220Z,9.38
2022-10-18T04:18:42.847Z,9.43
2022-10-18T04:22:44.513Z,9.29
2022-10-18T04:26:46.346Z,9.34
2022-10-18T04:30:52.726Z,9.24
2022-10-18T04:34:54.537Z,9.26
2022-10-18T04:38:56.144Z,9.21
2022-10-18T04:42:58.034Z,9.22
2022-10-18T04:46:59.702Z,9.15
2022-10-18T04:51:01.632Z,9.13
2022-10-18T04:55:03.564Z,9.20
2022-10-18T04:59:05.517Z,9.18
2022-10-18T05:03:08.330Z,9.27
2022-10-18T05:07:10.365Z,9.22
2022-10-18T05:11:12.211Z,9.32
2022-10-18T05:15:14.016Z,9.27
2022-10-18T05:19:15.961Z,9.31
2022-10-18T05:23:17.839Z,9.42
2022-10-18T05:27:19.800Z,9.46
2022-10-18T05:31:21.700Z,9.44
2022-10-18T05:35:23.442Z,9.48
2022-10-18T05:39:25.351Z,9.52
2022-10-18T05:43:29.015Z,9.52
2022-10-18T05:47:30.999Z,9.64
2022-10-18T05:51:32.829Z,9.74
2022-10-18T05:55:34.518Z,9.86
2022-10-18T05:59:36.428Z,10.02
2022-10-18T06:03:38.247Z,10.14
2022-10-18T06:07:40.067Z,10.26
2022-10-18T06:11:41.715Z,10.43
2022-10-18T06:15:43.558Z,10.64
2022-10-18T06:19:45.474Z,10.91
2022-10-18T06:23:51.498Z,11.11
2022-10-18T06:27:53.315Z,11.34
2022-10-18T06:31:55.315Z,11.52
2022-10-18T06:35:59.184Z,11.61
2022-10-18T06:40:01.017Z,11.81
2022-10-18T06:44:13.293Z,12.03
2022-10-18T06:48:15.695Z,12.26
2022-10-18T06:52:18.101Z,12.38
2022-10-18T06:56:19.938Z,12.50
2022-10-18T07:00:21.678Z,12.70
2022-10-18T07:04:23.525Z,12.82
2022-10-18T07:08:25.290Z,12.99
2022-10-18T07:12:28.363Z,13.21
2022-10-18T07:16:31.427Z,13.32
2022-10-18T07:20:34.178Z,13.48
2022-10-18T07:24:36.638Z,13.60
2022-10-18T07:28:38.507Z,13.77
2022-10-18T07:32:40.446Z,13.97
2022-10-18T07:36:42.541Z,14.07
2022-10-18T07:40:44.191Z,14.12
2022-10-18T07:44:46.069Z,14.26
2022-10-18T07:48:48.087Z,14.23
2022-10-18T07:52:50.022Z,14.37
2022-10-18T07:56:51.834Z,14.58
2022-10-18T08:00:54.004Z,14.83
2022-10-18T08:04:55.703Z,15.11
2022-10-18T08:08:57.811Z,15.26
2022-10-18T08:12:59.462Z,15.40
2022-10-18T08:17:01.332Z,15.57
2022-10-18T08:21:05.403Z,15.48
2022-10-18T08:25:07.787Z,15.60
2022-10-18T08:29:22.478Z,15.60
2022-10-18T08:33:25.951Z,15.71
2022-10-18T08:37:27.804Z,15.84
2022-10-18T08:41:38.914Z,15.86
2022-10-18T08:45:43.221Z,15.92
2022-10-18T08:49:50.527Z,16.18
2022-10-18T08:54:02.618Z,16.35
2022-10-18T08:58:18.617Z,16.59
2022-10-18T09:02:35.633Z,16.96
2022-10-18T09:06:49.147Z,17.00
2022-10-18T09:10:59.988Z,17.11
2022-10-18T09:15:20.457Z,17.15
2022-10-18T09:19:55.104Z,17.22
2022-10-18T09:24:11.229Z,17.41
2022-10-18T09:28:29.663Z,17.35
2022-10-18T09:32:49.075Z,17.44
2022-10-18T09:36:51.598Z,17.42
2022-10-18T09:41:00.558Z,17.67
2022-10-18T09:45:03.968Z,17.60
2022-10-18T09:49:15.698Z,17.68
2022-10-18T09:53:27.175Z,17.63
2022-10-18T09:57:51.184Z,17.52
2022-10-18T10:01:53.005Z,17.71
2022-10-18T10:06:12.919Z,17.84
2022-10-18T10:10:24.152Z,18.16
2022-10-18T10:14:28.467Z,18.12
2022-10-18T10:18:34.213Z,18.26
2022-10-18T10:22:38.872Z,18.65
2022-10-18T10:26:40.598Z,19.11
2022-10-18T10:30:42.700Z,19.13
2022-10-18T10:34:45.086Z,18.76
2022-10-18T10:39:06.711Z,18.82
2022-10-18T10:43:38.885Z,18.70
2022-10-18T10:47:41.841Z,18.74
2022-10-18T10:51:43.843Z,18.85
2022-10-18T10:55:46.298Z,19.26
2022-10-18T10:59:53.967Z,19.42
2022-10-18T11:03:59.501Z,19.90
2022-10-18T11:08:05.000Z,20.05
2022-10-18T11:12:36.574Z,19.65
2022-10-18T11:17:08.112Z,19.64
2022-10-18T11:21:18.839Z,19.73
2022-10-18T11:25:23.003Z,19.74
2022-10-18T11:29:49.665Z,19.92
2022-10-18T11:34:14.830Z,19.81
2022-10-18T11:38:49.030Z,19.64
2022-10-18T11:43:01.183Z,19.71
2022-10-18T11:47:16.781Z,19.43
2022-10-18T11:52:12.036Z,19.51
2022-10-18T11:56:37.120Z,19.58
2022-10-18T12:01:11.744Z,19.76
2022-10-18T12:05:30.021Z,19.94
2022-10-18T12:09:37.224Z,20.05
2022-10-18T12:14:03.802Z,20.23
2022-10-18T12:18:11.451Z,20.29
2022-10-18T12:22:24.517Z,20.31
2022-10-18T12:26:28.780Z,19.99
2022-10-18T12:30:42.375Z,20.05
2022-10-18T12:34:54.798Z,19.80
2022-10-18T12:39:07.114Z,20.01
2022-10-18T12:43:16.716Z,19.82
2022-10-18T12:47:23.475Z,19.82
2022-10-18T12:51:25.370Z,19.70
2022-10-18T12:55:31.744Z,19.77
2022-10-18T12:59:33.645Z,19.61
2022-10-18T13:03:41.105Z,19.55
2022-10-18T13:07:43.372Z,19.54
2022-10-18T13:11:45.494Z,19.50
2022-10-18T13:15:53.774Z,19.31
2022-10-18T13:20:26.448Z,19.43
2022-10-18T13:24:39.740Z,19.37
2022-10-18T13:29:21.015Z,19.12
2022-10-18T13:33:38.711Z,19.23
2022-10-18T13:37:40.792Z,19.17
2022-10-18T13:41:42.364Z,19.14
2022-10-18T13:45:56.204Z,19.09
2022-10-18T13:50:13.532Z,19.14
2022-10-18T13:54:33.441Z,19.00
2022-10-18T13:59:05.786Z,18.89
2022-10-18T14:03:55.685Z,18.83
2022-10-18T14:08:08.053Z,18.78
2022-10-18T14:12:23.503Z,18.70
2022-10-18T14:16:38.746Z,18.59
2022-10-18T14:21:01.368Z,18.56
2022-10-18T14:25:18.694Z,18.60
2022-10-18T14:29:20.775Z,18.45
2022-10-18T14:33:33.237Z,18.43
2022-10-18T14:37:36.562Z,18.33
2022-10-18T14:41:48.553Z,18.14
2022-10-18T14:45:50.541Z,18.04
2022-10-18T14:49:57.791Z,17.82
2022-10-18T14:54:00.481Z,17.81
2022-10-18T14:58:02.799Z,17.64
2022-10-18T15:02:14.645Z,17.51
2022-10-18T15:06:19.751Z,17.38
2022-10-18T15:10:25.548Z,17.34
2022-10-18T15:14:28.780Z,17.26
2022-10-18T15:22:37.454Z,16.94
2022-10-18T15:26:45.047Z,16.83
2022-10-18T15:30:46.949Z,16.62
2022-10-18T15:34:48.849Z,16.53
2022-10-18T15:38:50.628Z,16.49
2022-10-18T15:42:55.156Z,16.49
2022-10-18T15:47:12.454Z,16.27
2022-10-18T15:51:49.969Z,16.13
2022-10-18T15:55:55.742Z,15.90
2022-10-18T16:00:02.137Z,15.76
2022-10-18T16:04:31.474Z,15.46
2022-10-18T16:08:40.636Z,15.21
2022-10-18T16:12:42.338Z,14.99
2022-10-18T16:16:45.283Z,14.81
2022-10-18T16:20:48.179Z,14.74
2022-10-18T16:24:50.115Z,14.60
2022-10-18T16:28:52.336Z,14.52
2022-10-18T16:32:54.254Z,14.62
2022-10-18T16:36:55.946Z,14.61
2022-10-18T16:40:58.084Z,14.67
2022-10-18T16:44:59.902Z,14.58
2022-10-18T16:49:02.642Z,14.65
2022-10-18T16:53:04.306Z,14.58
2022-10-18T16:57:06.371Z,14.58
2022-10-18T17:01:12.105Z,14.49
2022-10-18T17:05:14.919Z,14.40
2022-10-18T17:09:16.662Z,14.37
2022-10-18T17:13:19.076Z,14.34
2022-10-18T17:17:20.868Z,14.35
2022-10-18T17:21:23.553Z,14.37
2022-10-18T17:25:25.294Z,14.41
2022-10-18T17:29:27.236Z,14.46
2022-10-18T17:33:28.996Z,14.47
2022-10-18T17:37:31.087Z,14.38
2022-10-18T17:41:32.896Z,14.19
2022-10-18T17:45:35.057Z,14.08
2022-10-18T17:49:36.789Z,13.91
2022-10-18T17:53:39.024Z,13.73
2022-10-18T17:57:42.500Z,13.74
2022-10-18T18:01:44.426Z,13.72
2022-10-18T18:05:46.975Z,13.65
2022-10-18T18:09:48.897Z,13.53
2022-10-18T18:13:51.183Z,13.50
2022-10-18T18:17:57.110Z,13.47
2022-10-18T18:21:59.452Z,13.47
2022-10-18T18:26:01.302Z,13.37
2022-10-18T18:30:03.245Z,13.33
2022-10-18T18:34:09.582Z,13.31
2022-10-18T18:38:11.254Z,13.36
2022-10-18T18:42:13.084Z,13.37
2022-10-18T18:46:14.971Z,13.19
2022-10-18T18:50:16.981Z,13.26
2022-10-18T18:54:18.574Z,13.24
2022-10-18T18:58:20.711Z,13.19
2022-10-18T19:02:22.520Z,13.18
2022-10-18T19:06:26.610Z,13.22
2022-10-18T19:10:29.047Z,13.21
2022-10-18T19:14:30.982Z,13.24
2022-10-18T19:18:32.591Z,13.32
2022-10-18T19:22:34.486Z,13.35
2022-10-18T19:26:45.360Z,13.27
2022-10-18T19:30:50.089Z,13.40
2022-10-18T19:34:52.817Z,13.38
2022-10-18T19:38:54.677Z,13.40
2022-10-18T19:42:56.484Z,13.32
2022-10-18T19:46:59.137Z,13.36
2022-10-18T19:51:09.407Z,13.27
2022-10-18T19:55:11.648Z,13.21
2022-10-18T19:59:15.522Z,13.22
2022-10-18T20:03:17.402Z,13.24
2022-10-18T20:07:18.989Z,13.22
2022-10-18T20:11:23.771Z,13.13
2022-10-18T20:15:25.500Z,13.21
2022-10-18T20:19:27.322Z,13.12
2022-10-18T20:23:29.518Z,13.17
2022-10-18T20:27:32.121Z,13.13
2022-10-18T20:31:38.271Z,13.16
2022-10-18T20:35:40.401Z,13.19
2022-10-18T20:39:42.180Z,13.19
2022-10-18T20:43:44.407Z,13.17
2022-10-18T20:47:46.558Z,13.23
2022-10-18T20:51:48.441Z,13.23
2022-10-18T20:55:50.167Z,13.27
2022-10-18T20:59:52.044Z,13.29
2022-10-18T21:03:55.848Z,13.27
2022-10-18T21:07:58.373Z,13.27
2022-10-18T21:12:00.232Z,13.33
2022-10-18T21:16:03.666Z,13.33
2022-10-18T21:20:06.696Z,13.42
2022-10-18T21:24:08.824Z,13.35
2022-10-18T21:28:10.565Z,13.29
2022-10-18T21:32:12.421Z,13.37
2022-10-18T21:36:15.010Z,13.33
2022-10-18T21:40:17.121Z,13.33
2022-10-18T21:44:18.912Z,13.26
2022-10-18T21:52:27.620Z,13.22
2022-10-18T21:56:32.849Z,13.24
2022-10-18T22:00:34.724Z,13.27
2022-10-18T22:04:36.838Z,13.28
2022-10-18T22:08:38.751Z,13.28
2022-10-18T22:12:40.697Z,13.26
2022-10-18T22:16:42.399Z,13.38
2022-10-18T22:20:54.222Z,13.32
2022-10-18T22:24:56.144Z,13.34
2022-10-18T22:29:04.072Z,13.27
2022-10-18T22:33:05.756Z,13.19
2022-10-18T22:37:07.808Z,13.25
2022-10-18T22:41:11.477Z,13.24
2022-10-18T22:45:13.365Z,13.19
2022-10-18T22:49:15.303Z,13.27
2022-10-18T22:53:17.275Z,13.20
2022-10-18T22:57:19.027Z,13.22
2022-10-18T23:01:22.556Z,13.20
2022-10-18T23:05:24.273Z,13.22
2022-10-18T23:09:26.081Z,13.13
2022-10-18T23:13:27.839Z,13.08
2022-10-18T23:17:29.776Z,13.02
2022-10-18T23:21:33.461Z,13.07
2022-10-18T23:25:36.783Z,13.01
2022-10-18T23:29:38.464Z,13.00
2022-10-18T23:33:41.390Z,13.06
2022-10-18T23:37:43.251Z,12.96
2022-10-18T23:41:45.206Z,12.89
2022-10-18T23:49:55.617Z,12.73
2022-10-18T23:53:57.260Z,12.67
2022-10-18T23:57:59.207Z,12.62
